createdAt,value
2022-11-05T00:00:13.142Z,994.78
2022-11-05T00:01:13.103Z,994.80
2022-11-05T00:02:13.106Z,994.80
2022-11-05T00:03:13.460Z,994.80
2022-11-05T00:04:14.289Z,994.79
2022-11-05T00:05:14.267Z,994.85
2022-11-05T00:06:14.207Z,994.83
2022-11-05T00:07:15.220Z,994.82
2022-11-05T00:08:14.196Z,994.82
2022-11-05T00:09:14.205Z,994.82
2022-11-05T00:10:14.217Z,994.83
2022-11-05T00:11:18.135Z,994.84
2022-11-05T00:12:15.161Z,994.82
2022-11-05T00:13:15.162Z,994.88
2022-11-05T00:14:14.140Z,994.83
2022-11-05T00:15:14.162Z,994.91
2022-11-05T00:16:14.126Z,994.90
2022-11-05T00:17:14.124Z,994.93
2022-11-05T00:18:14.111Z,994.93
2022-11-05T00:19:14.109Z,994.97
2022-11-05T00:20:14.148Z,994.97
2022-11-05T00:21:14.086Z,995.03
2022-11-05T00:22:14.077Z,995.00
2022-11-05T00:23:14.064Z,995.05
2022-11-05T00:24:14.063Z,995.00
2022-11-05T00:25:14.090Z,995.09
2022-11-05T00:26:14.043Z,995.07
2022-11-05T00:27:14.044Z,995.08
2022-11-05T00:28:14.272Z,995.14
2022-11-05T00:29:14.035Z,995.09
2022-11-05T00:30:14.041Z,995.14
2022-11-05T00:31:14.008Z,995.10
2022-11-05T00:32:13.997Z,995.07
2022-11-05T00:33:13.983Z,995.10
2022-11-05T00:34:13.994Z,995.14
2022-11-05T00:35:14.019Z,995.18
2022-11-05T00:36:13.963Z,995.18
2022-11-05T00:37:13.959Z,995.23
2022-11-05T00:38:13.959Z,995.25
2022-11-05T00:39:13.938Z,995.15
2022-11-05T00:40:13.958Z,995.17
2022-11-05T00:41:13.924Z,995.21
2022-11-05T00:42:13.910Z,995.13
2022-11-05T00:43:14.070Z,995.23
2022-11-05T00:44:13.889Z,995.26
2022-11-05T00:45:13.911Z,995.27
2022-11-05T00:46:13.894Z,995.29
2022-11-05T00:47:13.863Z,995.32
2022-11-05T00:48:13.884Z,995.24
2022-11-05T00:49:13.894Z,995.25
2022-11-05T00:50:13.885Z,995.31
2022-11-05T00:51:13.853Z,995.31
2022-11-05T00:52:13.818Z,995.30
2022-11-05T00:53:14.017Z,995.36
2022-11-05T00:54:13.834Z,995.37
2022-11-05T00:55:13.843Z,995.43
2022-11-05T00:56:13.805Z,995.41
2022-11-05T00:57:13.808Z,995.43
2022-11-05T00:58:13.771Z,995.38
2022-11-05T00:59:13.790Z,995.36
2022-11-05T01:00:13.871Z,995.43
2022-11-05T01:01:13.816Z,995.43
2022-11-05T01:02:13.854Z,995.40
2022-11-05T01:03:14.182Z,995.40
2022-11-05T01:04:13.713Z,995.51
2022-11-05T01:05:13.758Z,995.41
2022-11-05T01:06:13.703Z,995.50
2022-11-05T01:07:13.715Z,995.46
2022-11-05T01:08:13.709Z,995.51
2022-11-05T01:09:13.680Z,995.50
2022-11-05T01:10:13.697Z,995.49
2022-11-05T01:11:13.688Z,995.43
2022-11-05T01:12:13.660Z,995.45
2022-11-05T01:13:13.744Z,995.46
2022-11-05T01:14:13.640Z,995.42
2022-11-05T01:15:13.671Z,995.56
2022-11-05T01:16:13.615Z,995.55
2022-11-05T01:17:13.616Z,995.57
2022-11-05T01:18:13.598Z,995.63
2022-11-05T01:19:13.589Z,995.53
2022-11-05T01:20:13.627Z,995.63
2022-11-05T01:21:13.571Z,995.61
2022-11-05T01:22:13.569Z,995.59
2022-11-05T01:23:14.017Z,995.57
2022-11-05T01:24:14.546Z,995.54
2022-11-05T01:25:13.589Z,995.55
2022-11-05T01:26:13.530Z,995.54
2022-11-05T01:27:13.552Z,995.54
2022-11-05T01:28:13.532Z,995.55
2022-11-05T01:29:13.626Z,995.56
2022-11-05T01:30:13.527Z,995.62
2022-11-05T01:31:13.526Z,995.60
2022-11-05T01:32:13.563Z,995.58
2022-11-05T01:33:13.893Z,995.59
2022-11-05T01:34:13.487Z,995.61
2022-11-05T01:35:13.473Z,995.60
2022-11-05T01:36:13.473Z,995.67
2022-11-05T01:37:13.470Z,995.68
2022-11-05T01:38:13.441Z,995.69
2022-11-05T01:39:13.431Z,995.67
2022-11-05T01:40:13.416Z,995.72
2022-11-05T01:41:14.446Z,995.71
2022-11-05T01:42:13.398Z,995.72
2022-11-05T01:43:13.486Z,995.72
2022-11-05T01:44:13.381Z,995.73
2022-11-05T01:45:13.397Z,995.76
2022-11-05T01:46:13.394Z,995.71
2022-11-05T01:47:13.366Z,995.74
2022-11-05T01:48:13.400Z,995.76
2022-11-05T01:49:13.340Z,995.75
2022-11-05T01:50:13.344Z,995.81
2022-11-05T01:51:13.364Z,995.78
2022-11-05T01:52:13.321Z,995.80
2022-11-05T01:53:13.682Z,995.79
2022-11-05T01:54:13.309Z,995.81
2022-11-05T01:55:13.289Z,995.78
2022-11-05T01:56:13.357Z,995.79
2022-11-05T01:57:13.281Z,995.78
2022-11-05T01:58:13.264Z,995.85
2022-11-05T01:59:13.275Z,995.77
2022-11-05T02:00:13.259Z,995.85
2022-11-05T02:01:13.266Z,995.80
2022-11-05T02:02:13.300Z,995.83
2022-11-05T02:03:13.591Z,995.87
2022-11-05T02:04:13.222Z,995.89
2022-11-05T02:05:13.203Z,995.88
2022-11-05T02:06:13.226Z,995.93
2022-11-05T02:07:13.190Z,995.93
2022-11-05T02:08:13.181Z,995.86
2022-11-05T02:09:13.153Z,995.88
2022-11-05T02:10:14.168Z,995.87
2022-11-05T02:11:13.187Z,995.84
2022-11-05T02:12:13.143Z,995.86
2022-11-05T02:13:13.355Z,995.96
2022-11-05T02:14:13.119Z,995.86
2022-11-05T02:15:13.122Z,995.91
2022-11-05T02:16:13.183Z,995.88
2022-11-05T02:17:13.113Z,995.97
2022-11-05T02:18:13.138Z,995.99
2022-11-05T02:19:13.093Z,995.92
2022-11-05T02:20:13.074Z,995.89
2022-11-05T02:21:13.157Z,995.88
2022-11-05T02:22:13.076Z,995.97
2022-11-05T02:23:13.381Z,995.88
2022-11-05T02:24:13.051Z,995.93
2022-11-05T02:25:13.056Z,995.91
2022-11-05T02:26:13.049Z,995.88
2022-11-05T02:27:13.092Z,995.91
2022-11-05T02:28:13.019Z,995.90
2022-11-05T02:29:13.006Z,995.90
2022-11-05T02:30:13.028Z,995.95
2022-11-05T02:31:13.047Z,995.90
2022-11-05T02:32:12.968Z,995.92
2022-11-05T02:33:13.230Z,995.93
2022-11-05T02:34:12.959Z,995.94
2022-11-05T02:35:12.948Z,995.99
2022-11-05T02:36:13.024Z,996.00
2022-11-05T02:37:12.975Z,996.06
2022-11-05T02:38:12.932Z,996.11
2022-11-05T02:39:13.913Z,996.10
2022-11-05T02:40:12.927Z,996.13
2022-11-05T02:41:12.941Z,996.13
2022-11-05T02:42:12.884Z,996.12
2022-11-05T02:43:13.230Z,996.14
2022-11-05T02:44:12.869Z,996.13
2022-11-05T02:45:12.901Z,996.19
2022-11-05T02:46:12.875Z,996.16
2022-11-05T02:47:17.064Z,996.16
2022-11-05T02:48:14.835Z,996.19
2022-11-05T02:49:12.840Z,996.13
2022-11-05T02:50:12.828Z,996.16
2022-11-05T02:51:12.809Z,996.17
2022-11-05T02:52:12.827Z,996.14
2022-11-05T02:53:13.065Z,996.18
2022-11-05T02:54:12.788Z,996.15
2022-11-05T02:55:12.785Z,996.13
2022-11-05T02:56:12.765Z,996.18
2022-11-05T02:57:12.845Z,996.19
2022-11-05T02:58:12.749Z,996.18
2022-11-05T02:59:12.745Z,996.14
2022-11-05T03:00:12.741Z,996.18
2022-11-05T03:01:12.730Z,996.15
2022-11-05T03:02:12.878Z,996.12
2022-11-05T03:03:12.935Z,996.13
2022-11-05T03:04:12.691Z,996.09
2022-11-05T03:05:13.722Z,996.08
2022-11-05T03:06:12.690Z,996.11
2022-11-05T03:07:12.705Z,996.14
2022-11-05T03:08:12.677Z,996.11
2022-11-05T03:09:12.660Z,996.16
2022-11-05T03:10:12.672Z,996.18
2022-11-05T03:11:12.644Z,996.21
2022-11-05T03:12:12.664Z,996.17
2022-11-05T03:13:12.922Z,996.17
2022-11-05T03:14:12.609Z,996.15
2022-11-05T03:15:12.634Z,996.24
2022-11-05T03:16:12.640Z,996.21
2022-11-05T03:17:12.624Z,996.24
2022-11-05T03:18:12.620Z,996.16
2022-11-05T03:19:12.606Z,996.20
2022-11-05T03:20:12.566Z,996.21
2022-11-05T03:21:12.561Z,996.17
2022-11-05T03:22:12.583Z,996.26
2022-11-05T03:23:13.009Z,996.24
2022-11-05T03:24:12.536Z,996.20
2022-11-05T03:25:12.553Z,996.24
2022-11-05T03:26:12.519Z,996.24
2022-11-05T03:27:12.543Z,996.25
2022-11-05T03:28:12.526Z,996.23
2022-11-05T03:29:12.522Z,996.25
2022-11-05T03:30:12.505Z,996.21
2022-11-05T03:31:12.481Z,996.25
2022-11-05T03:32:12.513Z,996.18
2022-11-05T03:33:12.708Z,996.21
2022-11-05T03:34:12.478Z,996.24
2022-11-05T03:35:12.452Z,996.28
2022-11-05T03:36:12.443Z,996.28
2022-11-05T03:37:12.436Z,996.35
2022-11-05T03:38:12.460Z,996.33
2022-11-05T03:39:12.458Z,996.29
2022-11-05T03:40:12.401Z,996.34
2022-11-05T03:41:12.398Z,996.32
2022-11-05T03:42:12.404Z,996.32
2022-11-05T03:43:12.749Z,996.37
2022-11-05T03:44:12.368Z,996.34
2022-11-05T03:45:12.361Z,996.34
2022-11-05T03:46:12.369Z,996.38
2022-11-05T03:47:12.348Z,996.48
2022-11-05T03:48:12.444Z,996.45
2022-11-05T03:49:12.350Z,996.42
2022-11-05T03:50:12.315Z,996.44
2022-11-05T03:51:12.310Z,996.53
2022-11-05T03:52:12.305Z,996.53
2022-11-05T03:53:12.615Z,996.48
2022-11-05T03:54:12.306Z,996.47
2022-11-05T03:55:12.280Z,996.47
2022-11-05T03:56:12.266Z,996.48
2022-11-05T03:57:12.273Z,996.53
2022-11-05T03:58:12.279Z,996.54
2022-11-05T03:59:12.267Z,996.49
2022-11-05T04:00:12.267Z,996.64
2022-11-05T04:01:12.226Z,996.62
2022-11-05T04:02:12.364Z,996.65
2022-11-05T04:03:12.598Z,996.71
2022-11-05T04:04:12.201Z,996.68
2022-11-05T04:05:12.195Z,996.68
2022-11-05T04:06:13.967Z,996.71
2022-11-05T04:07:13.216Z,996.76
2022-11-05T04:08:14.497Z,996.74
2022-11-05T04:09:13.154Z,996.76
2022-11-05T04:10:12.161Z,996.74
2022-11-05T04:11:12.150Z,996.79
2022-11-05T04:12:12.201Z,996.80
2022-11-05T04:13:12.438Z,996.80
2022-11-05T04:14:12.125Z,996.76
2022-11-05T04:15:12.110Z,996.87
2022-11-05T04:16:12.096Z,996.83
2022-11-05T04:17:12.105Z,996.84
2022-11-05T04:18:12.112Z,996.90
2022-11-05T04:19:12.171Z,996.88
2022-11-05T04:20:12.063Z,996.87
2022-11-05T04:21:12.070Z,996.90
2022-11-05T04:22:12.093Z,996.92
2022-11-05T04:23:12.324Z,996.95
2022-11-05T04:24:12.028Z,996.92
2022-11-05T04:25:12.021Z,996.97
2022-11-05T04:26:12.012Z,996.98
2022-11-05T04:27:12.040Z,997.04
2022-11-05T04:28:12.027Z,997.00
2022-11-05T04:29:12.013Z,997.04
2022-11-05T04:30:11.976Z,997.00
2022-11-05T04:31:11.969Z,997.01
2022-11-05T04:32:12.010Z,997.03
2022-11-05T04:33:12.284Z,997.03
2022-11-05T04:34:11.950Z,997.08
2022-11-05T04:35:11.951Z,997.08
2022-11-05T04:36:11.957Z,997.05
2022-11-05T04:37:11.922Z,997.08
2022-11-05T04:38:11.946Z,997.14
2022-11-05T04:39:11.957Z,997.16
2022-11-05T04:40:11.907Z,997.10
2022-11-05T04:41:11.888Z,997.18
2022-11-05T04:42:11.873Z,997.16
2022-11-05T04:43:15.128Z,997.16
2022-11-05T04:44:12.858Z,997.21
2022-11-05T04:45:11.875Z,997.21
2022-11-05T04:46:11.840Z,997.15
2022-11-05T04:47:11.852Z,997.16
2022-11-05T04:48:11.876Z,997.29
2022-11-05T04:49:11.849Z,997.23
2022-11-05T04:50:11.818Z,997.26
2022-11-05T04:51:11.806Z,997.20
2022-11-05T04:52:11.800Z,997.21
2022-11-05T04:53:12.166Z,997.24
2022-11-05T04:54:11.805Z,997.18
2022-11-05T04:55:11.804Z,997.18
2022-11-05T04:56:11.788Z,997.21
2022-11-05T04:57:11.746Z,997.24
2022-11-05T04:58:11.762Z,997.20
2022-11-05T04:59:11.745Z,997.25
2022-11-05T05:00:11.724Z,997.24
2022-11-05T05:01:11.784Z,997.16
2022-11-05T05:02:11.747Z,997.18
2022-11-05T05:03:12.143Z,997.20
2022-11-05T05:04:11.695Z,997.12
2022-11-05T05:05:11.690Z,997.12
2022-11-05T05:06:11.673Z,997.15
2022-11-05T05:07:11.695Z,997.15
2022-11-05T05:08:11.697Z,997.20
2022-11-05T05:09:11.655Z,997.11
2022-11-05T05:10:11.664Z,997.14
2022-11-05T05:11:11.642Z,997.15
2022-11-05T05:12:11.645Z,997.16
2022-11-05T05:13:12.047Z,997.13
2022-11-05T05:14:11.618Z,997.07
2022-11-05T05:15:11.619Z,997.10
2022-11-05T05:16:11.605Z,997.13
2022-11-05T05:17:11.589Z,997.14
2022-11-05T05:18:11.619Z,997.14
2022-11-05T05:19:11.580Z,997.16
2022-11-05T05:20:11.552Z,997.17
2022-11-05T05:21:11.556Z,997.20
2022-11-05T05:22:11.576Z,997.22
2022-11-05T05:23:11.984Z,997.26
2022-11-05T05:24:11.539Z,997.20
2022-11-05T05:25:11.519Z,997.22
2022-11-05T05:26:11.507Z,997.21
2022-11-05T05:27:11.503Z,997.24
2022-11-05T05:28:11.545Z,997.21
2022-11-05T05:29:11.511Z,997.23
2022-11-05T05:30:11.472Z,997.21
2022-11-05T05:31:11.464Z,997.29
2022-11-05T05:32:12.465Z,997.27
2022-11-05T05:33:11.747Z,997.32
2022-11-05T05:34:11.500Z,997.32
2022-11-05T05:35:11.480Z,997.33
2022-11-05T05:36:11.735Z,997.32
2022-11-05T05:37:12.421Z,997.38
2022-11-05T05:38:11.473Z,997.36
2022-11-05T05:39:11.409Z,997.37
2022-11-05T05:40:11.417Z,997.44
2022-11-05T05:41:11.392Z,997.39
2022-11-05T05:42:11.388Z,997.42
2022-11-05T05:43:11.808Z,997.39
2022-11-05T05:44:11.354Z,997.43
2022-11-05T05:45:11.377Z,997.50
2022-11-05T05:46:11.352Z,997.48
2022-11-05T05:47:11.354Z,997.46
2022-11-05T05:48:11.362Z,997.53
2022-11-05T05:49:12.632Z,997.52
2022-11-05T05:50:12.307Z,997.60
2022-11-05T05:51:11.307Z,997.51
2022-11-05T05:52:11.301Z,997.59
2022-11-05T05:53:11.670Z,997.58
2022-11-05T05:54:11.279Z,997.56
2022-11-05T05:55:11.269Z,997.63
2022-11-05T05:56:11.271Z,997.58
2022-11-05T05:57:11.301Z,997.57
2022-11-05T05:58:11.258Z,997.58
2022-11-05T05:59:11.272Z,997.58
2022-11-05T06:00:11.227Z,997.61
2022-11-05T06:01:17.204Z,997.60
2022-11-05T06:02:13.289Z,997.67
2022-11-05T06:03:11.450Z,997.70
2022-11-05T06:04:11.223Z,997.68
2022-11-05T06:05:11.210Z,997.63
2022-11-05T06:06:11.180Z,997.72
2022-11-05T06:07:11.171Z,997.67
2022-11-05T06:08:11.161Z,997.73
2022-11-05T06:09:11.180Z,997.70
2022-11-05T06:10:11.145Z,997.72
2022-11-05T06:11:11.190Z,997.78
2022-11-05T06:12:11.125Z,997.74
2022-11-05T06:13:11.483Z,997.78
2022-11-05T06:14:11.160Z,997.78
2022-11-05T06:15:11.136Z,997.81
2022-11-05T06:16:11.126Z,997.83
2022-11-05T06:17:11.094Z,997.82
2022-11-05T06:18:11.079Z,997.93
2022-11-05T06:19:11.113Z,997.85
2022-11-05T06:20:11.067Z,997.93
2022-11-05T06:21:11.055Z,997.98
2022-11-05T06:22:11.046Z,997.96
2022-11-05T06:23:11.213Z,997.97
2022-11-05T06:24:11.064Z,998.02
2022-11-05T06:25:11.040Z,998.04
2022-11-05T06:26:11.042Z,997.96
2022-11-05T06:27:11.016Z,997.97
2022-11-05T06:28:11.005Z,997.98
2022-11-05T06:29:11.022Z,997.94
2022-11-05T06:30:10.985Z,997.93
2022-11-05T06:31:10.971Z,997.93
2022-11-05T06:32:10.975Z,997.98
2022-11-05T06:33:11.128Z,997.88
2022-11-05T06:34:10.976Z,997.88
2022-11-05T06:35:10.937Z,997.96
2022-11-05T06:36:10.929Z,997.91
2022-11-05T06:37:10.946Z,997.92
2022-11-05T06:38:10.942Z,997.91
2022-11-05T06:39:10.930Z,997.93
2022-11-05T06:40:10.903Z,997.98
2022-11-05T06:41:11.016Z,997.97
2022-11-05T06:42:19.331Z,997.99
2022-11-05T06:43:13.410Z,997.97
2022-11-05T06:44:10.887Z,998.07
2022-11-05T06:45:10.854Z,998.06
2022-11-05T06:46:10.854Z,998.09
2022-11-05T06:47:10.837Z,998.06
2022-11-05T06:48:10.871Z,998.12
2022-11-05T06:49:10.854Z,998.12
2022-11-05T06:50:10.842Z,998.13
2022-11-05T06:51:10.804Z,998.17
2022-11-05T06:52:10.793Z,998.18
2022-11-05T06:53:10.966Z,998.24
2022-11-05T06:54:10.815Z,998.25
2022-11-05T06:55:10.770Z,998.19
2022-11-05T06:56:10.761Z,998.25
2022-11-05T06:57:10.760Z,998.26
2022-11-05T06:58:10.744Z,998.27
2022-11-05T06:59:10.751Z,998.31
2022-11-05T07:00:10.771Z,998.36
2022-11-05T07:01:10.808Z,998.38
2022-11-05T07:02:10.770Z,998.41
2022-11-05T07:03:10.959Z,998.43
2022-11-05T07:04:10.695Z,998.44
2022-11-05T07:05:10.718Z,998.44
2022-11-05T07:06:10.698Z,998.42
2022-11-05T07:07:10.682Z,998.47
2022-11-05T07:08:10.665Z,998.44
2022-11-05T07:09:10.652Z,998.47
2022-11-05T07:10:10.670Z,998.47
2022-11-05T07:11:10.634Z,998.53
2022-11-05T07:12:10.628Z,998.51
2022-11-05T07:13:11.135Z,998.55
2022-11-05T07:14:10.607Z,998.58
2022-11-05T07:15:10.632Z,998.57
2022-11-05T07:16:10.594Z,998.58
2022-11-05T07:17:10.586Z,998.55
2022-11-05T07:18:10.588Z,998.63
2022-11-05T07:19:10.567Z,998.64
2022-11-05T07:20:10.607Z,998.67
2022-11-05T07:21:10.552Z,998.69
2022-11-05T07:22:10.538Z,998.71
2022-11-05T07:23:10.966Z,998.65
2022-11-05T07:24:10.531Z,998.71
2022-11-05T07:25:10.549Z,998.76
2022-11-05T07:26:10.509Z,998.77
2022-11-05T07:27:10.497Z,998.81
2022-11-05T07:28:10.513Z,998.81
2022-11-05T07:29:10.485Z,998.79
2022-11-05T07:30:10.530Z,998.86
2022-11-05T07:31:10.476Z,998.91
2022-11-05T07:32:10.461Z,998.91
2022-11-05T07:33:11.850Z,998.91
2022-11-05T07:34:10.456Z,998.96
2022-11-05T07:35:10.461Z,998.93
2022-11-05T07:36:10.429Z,998.95
2022-11-05T07:37:10.425Z,998.95
2022-11-05T07:38:10.512Z,998.94
2022-11-05T07:39:10.482Z,998.90
2022-11-05T07:40:10.458Z,998.86
2022-11-05T07:41:10.381Z,998.87
2022-11-05T07:42:10.374Z,998.94
2022-11-05T07:43:10.656Z,998.92
2022-11-05T07:44:42.900Z,998.81
2022-11-05T07:45:10.395Z,998.81
2022-11-05T07:46:13.772Z,998.85
2022-11-05T07:47:11.331Z,998.87
2022-11-05T07:48:10.333Z,998.85
2022-11-05T07:49:10.331Z,998.85
2022-11-05T07:50:10.341Z,998.91
2022-11-05T07:51:10.298Z,999.01
2022-11-05T07:52:10.289Z,998.98
2022-11-05T07:53:10.594Z,999.00
2022-11-05T07:54:10.272Z,998.97
2022-11-05T07:55:10.289Z,999.02
2022-11-05T07:56:10.263Z,999.03
2022-11-05T07:57:10.245Z,999.05
2022-11-05T07:58:10.261Z,999.09
2022-11-05T07:59:10.226Z,999.13
2022-11-05T08:00:10.246Z,999.12
2022-11-05T08:01:10.327Z,999.09
2022-11-05T08:02:10.403Z,999.11
2022-11-05T08:03:10.367Z,999.15
2022-11-05T08:04:10.182Z,999.13
2022-11-05T08:05:10.232Z,999.14
2022-11-05T08:06:10.163Z,999.10
2022-11-05T08:07:10.160Z,999.23
2022-11-05T08:08:10.157Z,999.18
2022-11-05T08:09:10.142Z,999.24
2022-11-05T08:10:10.136Z,999.29
2022-11-05T08:11:10.161Z,999.29
2022-11-05T08:12:10.113Z,999.32
2022-11-05T08:13:10.505Z,999.31
2022-11-05T08:14:10.096Z,999.39
2022-11-05T08:15:10.102Z,999.46
2022-11-05T08:16:10.120Z,999.45
2022-11-05T08:17:10.830Z,999.47
2022-11-05T08:18:10.070Z,999.47
2022-11-05T08:19:10.064Z,999.58
2022-11-05T08:20:10.054Z,999.52
2022-11-05T08:21:10.145Z,999.51
2022-11-05T08:22:10.037Z,999.48
2022-11-05T08:23:10.396Z,999.44
2022-11-05T08:24:10.015Z,999.43
2022-11-05T08:25:10.011Z,999.33
2022-11-05T08:26:10.018Z,999.38
2022-11-05T08:27:11.000Z,999.36
2022-11-05T08:28:09.979Z,999.35
2022-11-05T08:29:09.979Z,999.39
2022-11-05T08:30:09.966Z,999.35
2022-11-05T08:31:09.981Z,999.32
2022-11-05T08:32:09.950Z,999.38
2022-11-05T08:33:10.404Z,999.56
2022-11-05T08:34:09.927Z,999.49
2022-11-05T08:35:09.920Z,999.47
2022-11-05T08:36:09.949Z,999.51
2022-11-05T08:37:09.907Z,999.42
2022-11-05T08:38:09.900Z,999.52
2022-11-05T08:39:15.847Z,999.47
2022-11-05T08:40:11.882Z,999.49
2022-11-05T08:41:09.902Z,999.58
2022-11-05T08:42:09.863Z,999.59
2022-11-05T08:43:10.295Z,999.53
2022-11-05T08:44:09.924Z,999.63
2022-11-05T08:45:09.842Z,999.62
2022-11-05T08:46:09.863Z,999.69
2022-11-05T08:47:09.828Z,999.74
2022-11-05T08:48:09.818Z,999.70
2022-11-05T08:49:09.802Z,999.74
2022-11-05T08:50:09.798Z,999.68
2022-11-05T08:51:09.820Z,999.66
2022-11-05T08:52:09.784Z,999.68
2022-11-05T08:53:10.180Z,999.67
2022-11-05T08:54:09.768Z,999.54
2022-11-05T08:55:09.756Z,999.52
2022-11-05T08:56:09.776Z,999.53
2022-11-05T08:57:09.738Z,999.56
2022-11-05T08:58:09.733Z,999.52
2022-11-05T08:59:09.723Z,999.59
2022-11-05T09:00:09.721Z,999.45
2022-11-05T09:01:09.811Z,999.63
2022-11-05T09:02:09.912Z,999.50
2022-11-05T09:03:10.134Z,999.58
2022-11-05T09:04:09.686Z,999.47
2022-11-05T09:05:09.677Z,999.62
2022-11-05T09:06:09.703Z,999.54
2022-11-05T09:07:09.661Z,999.64
2022-11-05T09:08:09.654Z,999.65
2022-11-05T09:09:09.645Z,999.63
2022-11-05T09:10:09.637Z,999.69
2022-11-05T09:11:09.654Z,999.68
2022-11-05T09:12:12.755Z,999.70
2022-11-05T09:13:16.606Z,999.73
2022-11-05T09:14:11.603Z,999.69
2022-11-05T09:15:09.595Z,999.66
2022-11-05T09:16:09.616Z,999.72
2022-11-05T09:17:09.578Z,999.74
2022-11-05T09:18:09.581Z,999.75
2022-11-05T09:19:09.562Z,999.73
2022-11-05T09:20:09.561Z,999.72
2022-11-05T09:21:09.808Z,999.72
2022-11-05T09:22:09.541Z,999.79
2022-11-05T09:23:09.839Z,999.77
2022-11-05T09:24:09.524Z,999.71
2022-11-05T09:25:09.523Z,999.67
2022-11-05T09:26:09.545Z,999.68
2022-11-05T09:27:09.493Z,999.70
2022-11-05T09:28:14.634Z,999.71
2022-11-05T09:29:14.398Z,999.68
2022-11-05T09:30:10.479Z,999.70
2022-11-05T09:31:09.507Z,999.73
2022-11-05T09:32:09.464Z,999.67
2022-11-05T09:33:09.686Z,999.70
2022-11-05T09:34:10.457Z,999.63
2022-11-05T09:35:09.442Z,999.57
2022-11-05T09:36:09.440Z,999.68
2022-11-05T09:37:09.463Z,999.67
2022-11-05T09:38:09.420Z,999.61
2022-11-05T09:39:09.411Z,999.62
2022-11-05T09:40:09.408Z,999.60
2022-11-05T09:41:09.394Z,999.60
2022-11-05T09:42:09.416Z,999.58
2022-11-05T09:43:09.770Z,999.52
2022-11-05T09:44:09.374Z,999.51
2022-11-05T09:45:09.376Z,999.60
2022-11-05T09:46:09.348Z,999.52
2022-11-05T09:47:09.375Z,999.57
2022-11-05T09:48:09.335Z,999.49
2022-11-05T09:49:09.335Z,999.54
2022-11-05T09:50:09.330Z,999.46
2022-11-05T09:51:09.325Z,999.53
2022-11-05T09:52:09.346Z,999.53
2022-11-05T09:53:09.588Z,999.46
2022-11-05T09:54:09.304Z,999.47
2022-11-05T09:55:09.298Z,999.45
2022-11-05T09:56:09.286Z,999.40
2022-11-05T09:57:09.308Z,999.39
2022-11-05T09:58:09.264Z,999.40
2022-11-05T09:59:09.272Z,999.40
2022-11-05T10:00:09.256Z,999.35
2022-11-05T10:01:09.347Z,999.37
2022-11-05T10:02:09.342Z,999.17
2022-11-05T10:03:09.625Z,999.30
2022-11-05T10:04:09.228Z,999.35
2022-11-05T10:05:10.279Z,999.32
2022-11-05T10:06:10.219Z,999.21
2022-11-05T10:07:09.237Z,999.21
2022-11-05T10:08:09.204Z,999.11
2022-11-05T10:09:09.193Z,999.06
2022-11-05T10:10:09.186Z,999.10
2022-11-05T10:11:09.172Z,999.03
2022-11-05T10:12:09.199Z,998.96
2022-11-05T10:13:09.432Z,999.31
2022-11-05T10:14:09.162Z,999.18
2022-11-05T10:15:09.142Z,999.13
2022-11-05T10:16:09.144Z,999.21
2022-11-05T10:17:09.164Z,999.06
2022-11-05T10:18:09.122Z,999.20
2022-11-05T10:19:09.118Z,998.97
2022-11-05T10:20:09.108Z,998.88
2022-11-05T10:21:09.099Z,998.91
2022-11-05T10:22:09.128Z,999.25
2022-11-05T10:23:09.335Z,999.12
2022-11-05T10:24:09.084Z,998.99
2022-11-05T10:25:09.076Z,999.09
2022-11-05T10:26:09.070Z,999.12
2022-11-05T10:27:09.103Z,998.99
2022-11-05T10:28:09.055Z,998.88
2022-11-05T10:29:09.052Z,998.91
2022-11-05T10:30:09.034Z,998.88
2022-11-05T10:31:09.017Z,999.07
2022-11-05T10:32:09.047Z,999.08
2022-11-05T10:33:09.262Z,999.09
2022-11-05T10:34:09.006Z,999.00
2022-11-05T10:35:09.028Z,999.08
2022-11-05T10:36:08.987Z,998.97
2022-11-05T10:37:09.007Z,999.12
2022-11-05T10:38:08.974Z,999.05
2022-11-05T10:39:08.968Z,999.08
2022-11-05T10:40:08.948Z,999.10
2022-11-05T10:41:08.953Z,999.09
2022-11-05T10:42:08.966Z,999.15
2022-11-05T10:43:09.185Z,999.12
2022-11-05T10:44:08.928Z,999.09
2022-11-05T10:45:08.918Z,999.06
2022-11-05T10:46:08.916Z,999.16
2022-11-05T10:47:08.938Z,999.07
2022-11-05T10:48:08.897Z,999.08
2022-11-05T10:49:08.902Z,999.16
2022-11-05T10:50:08.885Z,998.91
2022-11-05T10:51:08.888Z,998.91
2022-11-05T10:52:08.990Z,999.14
2022-11-05T10:53:09.105Z,999.14
2022-11-05T10:54:08.861Z,999.11
2022-11-05T10:55:08.853Z,999.10
2022-11-05T10:56:08.847Z,999.07
2022-11-05T10:57:08.926Z,999.15
2022-11-05T10:58:08.835Z,999.09
2022-11-05T10:59:12.148Z,999.09
2022-11-05T11:00:09.921Z,999.05
2022-11-05T11:01:08.875Z,999.06
2022-11-05T11:02:08.871Z,999.10
2022-11-05T11:03:09.128Z,999.04
2022-11-05T11:04:08.786Z,999.10
2022-11-05T11:05:08.777Z,999.04
2022-11-05T11:06:08.770Z,999.11
2022-11-05T11:07:08.773Z,999.04
2022-11-05T11:08:09.019Z,999.08
2022-11-05T11:09:08.754Z,999.01
2022-11-05T11:10:08.774Z,999.06
2022-11-05T11:11:08.742Z,999.00
2022-11-05T11:12:08.732Z,999.04
2022-11-05T11:13:08.953Z,998.85
2022-11-05T11:14:08.714Z,998.81
2022-11-05T11:15:08.711Z,998.77
2022-11-05T11:16:08.704Z,998.72
2022-11-05T11:17:08.691Z,998.72
2022-11-05T11:18:09.723Z,998.98
2022-11-05T11:19:08.680Z,998.64
2022-11-05T11:20:08.757Z,998.95
2022-11-05T11:21:08.672Z,998.68
2022-11-05T11:22:08.667Z,998.71
2022-11-05T11:23:08.865Z,998.84
2022-11-05T11:24:08.651Z,998.84
2022-11-05T11:25:08.637Z,998.70
2022-11-05T11:26:08.633Z,998.68
2022-11-05T11:27:08.632Z,998.64
2022-11-05T11:28:08.646Z,998.61
2022-11-05T11:29:08.610Z,998.67
2022-11-05T11:30:08.631Z,998.62
2022-11-05T11:31:08.598Z,998.71
2022-11-05T11:32:08.586Z,998.75
2022-11-05T11:33:08.835Z,998.69
2022-11-05T11:34:08.587Z,998.66
2022-11-05T11:35:08.557Z,998.76
2022-11-05T11:36:08.557Z,998.79
2022-11-05T11:37:08.554Z,998.72
2022-11-05T11:38:08.609Z,998.65
2022-11-05T11:39:08.536Z,998.70
2022-11-05T11:40:10.086Z,998.77
2022-11-05T11:41:09.517Z,998.92
2022-11-05T11:42:08.513Z,998.84
2022-11-05T11:43:08.703Z,998.79
2022-11-05T11:44:08.497Z,998.86
2022-11-05T11:45:08.494Z,998.87
2022-11-05T11:46:14.030Z,998.80
2022-11-05T11:47:10.472Z,998.82
2022-11-05T11:48:08.494Z,998.70
2022-11-05T11:49:08.454Z,998.67
2022-11-05T11:50:08.445Z,998.74
2022-11-05T11:51:08.432Z,998.72
2022-11-05T11:52:08.425Z,998.64
2022-11-05T11:53:08.604Z,998.83
2022-11-05T11:54:08.431Z,998.83
2022-11-05T11:55:08.406Z,998.82
2022-11-05T11:56:08.433Z,998.82
2022-11-05T11:57:12.772Z,998.86
2022-11-05T11:58:10.409Z,998.78
2022-11-05T11:59:08.373Z,998.77
2022-11-05T12:00:11.717Z,998.74
2022-11-05T12:01:09.361Z,998.79
2022-11-05T12:02:08.432Z,998.77
2022-11-05T12:03:08.405Z,998.76
2022-11-05T12:04:08.341Z,998.80
2022-11-05T12:05:08.327Z,998.79
2022-11-05T12:06:08.318Z,998.80
2022-11-05T12:07:08.309Z,998.82
2022-11-05T12:08:08.476Z,998.91
2022-11-05T12:09:08.312Z,998.79
2022-11-05T12:10:08.321Z,998.88
2022-11-05T12:11:08.306Z,998.81
2022-11-05T12:12:08.396Z,998.89
2022-11-05T12:13:08.431Z,998.82
2022-11-05T12:14:08.245Z,998.80
2022-11-05T12:15:08.225Z,998.82
2022-11-05T12:16:09.254Z,998.81
2022-11-05T12:17:09.225Z,998.84
2022-11-05T12:18:08.238Z,998.78
2022-11-05T12:19:08.218Z,998.74
2022-11-05T12:20:08.197Z,998.72
2022-11-05T12:21:08.210Z,998.80
2022-11-05T12:22:08.189Z,998.69
2022-11-05T12:23:08.361Z,998.66
2022-11-05T12:24:08.164Z,998.66
2022-11-05T12:25:08.161Z,998.64
2022-11-05T12:26:08.148Z,998.58
2022-11-05T12:27:08.140Z,998.66
2022-11-05T12:28:08.164Z,998.70